sensor_id;sensor_type;location;lat;lon;timestamp;P1;durP1;ratioP1;P2;durP2;ratioP2
38909;SDS011;24676;51.360;12.354;2022-12-07T00:02:25;4.78;;;3.45;;
38909;SDS011;24676;51.360;12.354;2022-12-07T00:05:09;9.52;;;4.22;;
38909;SDS011;24676;51.360;12.354;2022-12-07T00:07:53;4.80;;;2.72;;
38909;SDS011;24676;51.360;12.354;2022-12-07T00:10:37;8.57;;;3.08;;
38909;SDS011;24676;51.360;12.354;2022-12-07T00:13:22;7.95;;;3.67;;
38909;SDS011;24676;51.360;12.354;2022-12-07T00:16:08;6.47;;;2.92;;
38909;SDS011;24676;51.360;12.354;2022-12-07T00:18:54;4.45;;;2.58;;
38909;SDS011;24676;51.360;12.354;2022-12-07T00:21:38;5.95;;;3.95;;
38909;SDS011;24676;51.360;12.354;2022-12-07T00:24:22;4.20;;;2.42;;
38909;SDS011;24676;51.360;12.354;2022-12-07T00:27:07;2.95;;;2.40;;
38909;SDS011;24676;51.360;12.354;2022-12-07T00:29:51;9.52;;;2.38;;
38909;SDS011;24676;51.360;12.354;2022-12-07T00:32:35;3.63;;;2.08;;
38909;SDS011;24676;51.360;12.354;2022-12-07T00:35:19;4.63;;;2.55;;
38909;SDS011;24676;51.360;12.354;2022-12-07T00:38:03;3.45;;;2.05;;
38909;SDS011;24676;51.360;12.354;2022-12-07T00:40:58;7.70;;;3.20;;
38909;SDS011;24676;51.360;12.354;2022-12-07T00:43:44;4.22;;;2.83;;
38909;SDS011;24676;51.360;12.354;2022-12-07T00:46:29;4.85;;;3.25;;
38909;SDS011;24676;51.360;12.354;2022-12-07T00:49:14;4.68;;;2.92;;
38909;SDS011;24676;51.360;12.354;2022-12-07T00:51:58;11.63;;;3.20;;
38909;SDS011;24676;51.360;12.354;2022-12-07T00:54:42;8.40;;;3.83;;
38909;SDS011;24676;51.360;12.354;2022-12-07T00:57:26;5.97;;;3.38;;
38909;SDS011;24676;51.360;12.354;2022-12-07T01:00:11;5.40;;;2.60;;
38909;SDS011;24676;51.360;12.354;2022-12-07T01:02:55;7.63;;;2.70;;
38909;SDS011;24676;51.360;12.354;2022-12-07T01:05:39;2.42;;;2.22;;
38909;SDS011;24676;51.360;12.354;2022-12-07T01:08:32;7.22;;;3.95;;
38909;SDS011;24676;51.360;12.354;2022-12-07T01:11:18;2.53;;;1.88;;
38909;SDS011;24676;51.360;12.354;2022-12-07T01:14:04;3.78;;;2.42;;
38909;SDS011;24676;51.360;12.354;2022-12-07T01:16:48;11.43;;;3.92;;
38909;SDS011;24676;51.360;12.354;2022-12-07T01:19:32;3.20;;;1.98;;
38909;SDS011;24676;51.360;12.354;2022-12-07T01:22:17;8.15;;;3.17;;
38909;SDS011;24676;51.360;12.354;2022-12-07T01:25:01;4.78;;;2.63;;
38909;SDS011;24676;51.360;12.354;2022-12-07T01:27:45;9.73;;;3.50;;
38909;SDS011;24676;51.360;12.354;2022-12-07T01:30:29;6.00;;;3.20;;
38909;SDS011;24676;51.360;12.354;2022-12-07T01:33:13;12.80;;;3.55;;
38909;SDS011;24676;51.360;12.354;2022-12-07T01:36:02;6.68;;;2.83;;
38909;SDS011;24676;51.360;12.354;2022-12-07T01:38:47;12.98;;;4.90;;
38909;SDS011;24676;51.360;12.354;2022-12-07T01:41:36;6.22;;;2.67;;
38909;SDS011;24676;51.360;12.354;2022-12-07T01:44:28;6.30;;;3.63;;
38909;SDS011;24676;51.360;12.354;2022-12-07T01:47:14;12.88;;;4.93;;
38909;SDS011;24676;51.360;12.354;2022-12-07T01:49:58;6.68;;;3.42;;
38909;SDS011;24676;51.360;12.354;2022-12-07T01:52:42;8.73;;;4.20;;
38909;SDS011;24676;51.360;12.354;2022-12-07T01:55:31;11.20;;;3.60;;
38909;SDS011;24676;51.360;12.354;2022-12-07T01:58:18;9.60;;;4.57;;
38909;SDS011;24676;51.360;12.354;2022-12-07T02:01:02;6.60;;;2.92;;
38909;SDS011;24676;51.360;12.354;2022-12-07T02:03:47;5.07;;;3.58;;
38909;SDS011;24676;51.360;12.354;2022-12-07T02:06:32;6.15;;;2.58;;
38909;SDS011;24676;51.360;12.354;2022-12-07T02:09:18;13.85;;;4.63;;
38909;SDS011;24676;51.360;12.354;2022-12-07T05:35:13;5.25;;;2.40;;
38909;SDS011;24676;51.360;12.354;2022-12-07T05:51:38;2.40;;;2.13;;
38909;SDS011;24676;51.360;12.354;2022-12-07T05:54:23;3.75;;;1.75;;
38909;SDS011;24676;51.360;12.354;2022-12-07T05:57:07;5.45;;;2.65;;
38909;SDS011;24676;51.360;12.354;2022-12-07T05:59:51;4.50;;;3.03;;
38909;SDS011;24676;51.360;12.354;2022-12-07T06:02:36;4.70;;;3.10;;
38909;SDS011;24676;51.360;12.354;2022-12-07T06:08:04;5.60;;;1.95;;
38909;SDS011;24676;51.360;12.354;2022-12-07T06:10:48;5.68;;;2.85;;
38909;SDS011;24676;51.360;12.354;2022-12-07T06:13:52;3.88;;;2.72;;
38909;SDS011;24676;51.360;12.354;2022-12-07T06:16:37;5.03;;;1.92;;
38909;SDS011;24676;51.360;12.354;2022-12-07T06:19:21;7.00;;;3.67;;
38909;SDS011;24676;51.360;12.354;2022-12-07T06:22:06;5.28;;;3.53;;
38909;SDS011;24676;51.360;12.354;2022-12-07T06:24:51;3.92;;;3.13;;
38909;SDS011;24676;51.360;12.354;2022-12-07T06:27:35;5.72;;;3.75;;
38909;SDS011;24676;51.360;12.354;2022-12-07T06:30:19;7.40;;;3.15;;
38909;SDS011;24676;51.360;12.354;2022-12-07T06:33:03;5.55;;;2.50;;
38909;SDS011;24676;51.360;12.354;2022-12-07T06:35:48;6.82;;;4.68;;
38909;SDS011;24676;51.360;12.354;2022-12-07T06:38:32;4.22;;;3.33;;
38909;SDS011;24676;51.360;12.354;2022-12-07T06:41:16;4.78;;;2.95;;
38909;SDS011;24676;51.360;12.354;2022-12-07T06:44:01;5.38;;;3.20;;
38909;SDS011;24676;51.360;12.354;2022-12-07T06:46:46;5.60;;;3.38;;
38909;SDS011;24676;51.360;12.354;2022-12-07T06:49:30;5.88;;;3.00;;
38909;SDS011;24676;51.360;12.354;2022-12-07T06:52:15;8.23;;;3.88;;
38909;SDS011;24676;51.360;12.354;2022-12-07T06:54:59;5.18;;;2.90;;
38909;SDS011;24676;51.360;12.354;2022-12-07T06:57:43;8.57;;;4.47;;
38909;SDS011;24676;51.360;12.354;2022-12-07T07:00:27;12.45;;;3.78;;
38909;SDS011;24676;51.360;12.354;2022-12-07T07:03:12;8.73;;;3.00;;
38909;SDS011;24676;51.360;12.354;2022-12-07T07:05:56;7.32;;;3.15;;
38909;SDS011;24676;51.360;12.354;2022-12-07T07:08:41;7.05;;;4.68;;
38909;SDS011;24676;51.360;12.354;2022-12-07T07:11:25;10.35;;;3.72;;
38909;SDS011;24676;51.360;12.354;2022-12-07T07:14:09;9.73;;;5.30;;
38909;SDS011;24676;51.360;12.354;2022-12-07T07:16:53;7.60;;;4.10;;
38909;SDS011;24676;51.360;12.354;2022-12-07T07:19:38;8.07;;;3.00;;
38909;SDS011;24676;51.360;12.354;2022-12-07T07:22:22;7.65;;;3.17;;
38909;SDS011;24676;51.360;12.354;2022-12-07T07:25:06;9.70;;;4.03;;
38909;SDS011;24676;51.360;12.354;2022-12-07T07:27:51;10.45;;;5.50;;
38909;SDS011;24676;51.360;12.354;2022-12-07T07:30:35;9.13;;;5.20;;
38909;SDS011;24676;51.360;12.354;2022-12-07T07:33:20;6.85;;;4.10;;
38909;SDS011;24676;51.360;12.354;2022-12-07T07:36:04;5.88;;;3.53;;
38909;SDS011;24676;51.360;12.354;2022-12-07T07:38:49;10.35;;;4.93;;
38909;SDS011;24676;51.360;12.354;2022-12-07T07:41:33;8.35;;;5.38;;
38909;SDS011;24676;51.360;12.354;2022-12-07T07:44:17;8.90;;;4.20;;
38909;SDS011;24676;51.360;12.354;2022-12-07T07:47:02;6.05;;;4.05;;
38909;SDS011;24676;51.360;12.354;2022-12-07T07:49:46;8.88;;;4.22;;
38909;SDS011;24676;51.360;12.354;2022-12-07T07:52:30;7.13;;;4.82;;
38909;SDS011;24676;51.360;12.354;2022-12-07T07:55:14;7.50;;;4.82;;
38909;SDS011;24676;51.360;12.354;2022-12-07T07:57:58;9.50;;;5.05;;
38909;SDS011;24676;51.360;12.354;2022-12-07T08:00:43;4.25;;;3.38;;
38909;SDS011;24676;51.360;12.354;2022-12-07T08:03:27;7.30;;;3.60;;
38909;SDS011;24676;51.360;12.354;2022-12-07T08:06:11;8.48;;;4.22;;
38909;SDS011;24676;51.360;12.354;2022-12-07T08:08:55;8.57;;;3.67;;
38909;SDS011;24676;51.360;12.354;2022-12-07T08:11:41;3.53;;;2.35;;
38909;SDS011;24676;51.360;12.354;2022-12-07T08:14:26;6.28;;;3.17;;
38909;SDS011;24676;51.360;12.354;2022-12-07T08:17:11;8.38;;;4.15;;
38909;SDS011;24676;51.360;12.354;2022-12-07T08:19:56;9.52;;;4.68;;
38909;SDS011;24676;51.360;12.354;2022-12-07T08:22:40;11.38;;;4.90;;
38909;SDS011;24676;51.360;12.354;2022-12-07T08:25:24;6.25;;;3.03;;
38909;SDS011;24676;51.360;12.354;2022-12-07T08:28:09;8.70;;;3.47;;
38909;SDS011;24676;51.360;12.354;2022-12-07T08:30:58;7.07;;;4.55;;
38909;SDS011;24676;51.360;12.354;2022-12-07T08:33:44;6.65;;;4.38;;
38909;SDS011;24676;51.360;12.354;2022-12-07T08:36:29;7.25;;;4.15;;
38909;SDS011;24676;51.360;12.354;2022-12-07T08:39:14;6.90;;;4.10;;
38909;SDS011;24676;51.360;12.354;2022-12-07T08:41:58;5.18;;;3.55;;
38909;SDS011;24676;51.360;12.354;2022-12-07T08:44:42;7.53;;;4.10;;
38909;SDS011;24676;51.360;12.354;2022-12-07T08:47:26;6.85;;;4.13;;
38909;SDS011;24676;51.360;12.354;2022-12-07T08:50:11;4.97;;;2.63;;
38909;SDS011;24676;51.360;12.354;2022-12-07T08:52:56;8.18;;;4.65;;
38909;SDS011;24676;51.360;12.354;2022-12-07T08:55:43;8.30;;;3.53;;
38909;SDS011;24676;51.360;12.354;2022-12-07T08:58:30;9.20;;;3.75;;
38909;SDS011;24676;51.360;12.354;2022-12-07T09:01:15;5.72;;;2.72;;
38909;SDS011;24676;51.360;12.354;2022-12-07T09:04:00;6.70;;;3.78;;
38909;SDS011;24676;51.360;12.354;2022-12-07T09:06:44;4.60;;;2.15;;
38909;SDS011;24676;51.360;12.354;2022-12-07T09:09:28;3.08;;;1.98;;
38909;SDS011;24676;51.360;12.354;2022-12-07T09:12:12;9.60;;;2.38;;
38909;SDS011;24676;51.360;12.354;2022-12-07T09:14:56;3.80;;;2.17;;
38909;SDS011;24676;51.360;12.354;2022-12-07T09:17:40;5.97;;;3.28;;
38909;SDS011;24676;51.360;12.354;2022-12-07T09:20:24;10.23;;;3.58;;
38909;SDS011;24676;51.360;12.354;2022-12-07T09:23:09;4.07;;;2.90;;
38909;SDS011;24676;51.360;12.354;2022-12-07T09:25:53;4.75;;;2.45;;
38909;SDS011;24676;51.360;12.354;2022-12-07T09:28:37;6.60;;;2.95;;
38909;SDS011;24676;51.360;12.354;2022-12-07T09:31:21;8.35;;;3.35;;
38909;SDS011;24676;51.360;12.354;2022-12-07T09:34:05;9.55;;;3.35;;
38909;SDS011;24676;51.360;12.354;2022-12-07T09:36:51;2.90;;;1.90;;
38909;SDS011;24676;51.360;12.354;2022-12-07T09:39:37;4.25;;;2.67;;
38909;SDS011;24676;51.360;12.354;2022-12-07T09:42:35;6.88;;;2.45;;
38909;SDS011;24676;51.360;12.354;2022-12-07T09:45:24;2.97;;;2.20;;
38909;SDS011;24676;51.360;12.354;2022-12-07T09:48:22;6.88;;;4.15;;
38909;SDS011;24676;51.360;12.354;2022-12-07T09:51:16;4.47;;;2.88;;
38909;SDS011;24676;51.360;12.354;2022-12-07T09:54:02;8.27;;;3.30;;
38909;SDS011;24676;51.360;12.354;2022-12-07T09:56:47;4.50;;;2.22;;
38909;SDS011;24676;51.360;12.354;2022-12-07T09:59:31;6.43;;;2.22;;
38909;SDS011;24676;51.360;12.354;2022-12-07T10:02:24;5.60;;;2.85;;
38909;SDS011;24676;51.360;12.354;2022-12-07T10:05:12;4.30;;;2.97;;
38909;SDS011;24676;51.360;12.354;2022-12-07T10:07:59;8.25;;;2.95;;
38909;SDS011;24676;51.360;12.354;2022-12-07T10:10:43;7.80;;;2.50;;
38909;SDS011;24676;51.360;12.354;2022-12-07T10:16:31;10.27;;;2.00;;
38909;SDS011;24676;51.360;12.354;2022-12-07T10:19:27;4.47;;;2.65;;
38909;SDS011;24676;51.360;12.354;2022-12-07T10:22:15;6.10;;;2.42;;
38909;SDS011;24676;51.360;12.354;2022-12-07T10:25:07;3.67;;;2.35;;
38909;SDS011;24676;51.360;12.354;2022-12-07T10:31:02;5.68;;;2.33;;
38909;SDS011;24676;51.360;12.354;2022-12-07T10:34:00;8.88;;;4.18;;
38909;SDS011;24676;51.360;12.354;2022-12-07T10:36:46;4.20;;;2.25;;
38909;SDS011;24676;51.360;12.354;2022-12-07T10:39:30;8.60;;;2.60;;
38909;SDS011;24676;51.360;12.354;2022-12-07T10:42:37;3.35;;;2.03;;
38909;SDS011;24676;51.360;12.354;2022-12-07T10:45:21;4.57;;;2.15;;
38909;SDS011;24676;51.360;12.354;2022-12-07T10:48:51;2.78;;;2.33;;
38909;SDS011;24676;51.360;12.354;2022-12-07T10:58:40;3.45;;;1.98;;
38909;SDS011;24676;51.360;12.354;2022-12-07T11:01:10;2.80;;;2.55;;
38909;SDS011;24676;51.360;12.354;2022-12-07T11:04:18;2.95;;;2.05;;
38909;SDS011;24676;51.360;12.354;2022-12-07T11:07:20;6.82;;;2.83;;
38909;SDS011;24676;51.360;12.354;2022-12-07T11:22:15;1.80;;;1.38;;
38909;SDS011;24676;51.360;12.354;2022-12-07T11:25:15;3.15;;;1.63;;
38909;SDS011;24676;51.360;12.354;2022-12-07T11:31:17;1.73;;;1.30;;
38909;SDS011;24676;51.360;12.354;2022-12-07T11:34:26;4.10;;;2.25;;
38909;SDS011;24676;51.360;12.354;2022-12-07T11:37:32;2.22;;;1.23;;
38909;SDS011;24676;51.360;12.354;2022-12-07T11:43:09;0.82;;;0.68;;
38909;SDS011;24676;51.360;12.354;2022-12-07T11:46:11;2.33;;;2.10;;
38909;SDS011;24676;51.360;12.354;2022-12-07T11:49:00;3.65;;;2.75;;
38909;SDS011;24676;51.360;12.354;2022-12-07T11:51:52;3.85;;;1.58;;
38909;SDS011;24676;51.360;12.354;2022-12-07T11:54:41;2.75;;;0.93;;
38909;SDS011;24676;51.360;12.354;2022-12-07T11:57:33;7.78;;;2.03;;
38909;SDS011;24676;51.360;12.354;2022-12-07T12:00:21;1.33;;;1.23;;
38909;SDS011;24676;51.360;12.354;2022-12-07T12:03:09;3.58;;;2.05;;
38909;SDS011;24676;51.360;12.354;2022-12-07T12:05:58;3.35;;;2.13;;
38909;SDS011;24676;51.360;12.354;2022-12-07T12:11:56;2.10;;;1.70;;
38909;SDS011;24676;51.360;12.354;2022-12-07T12:21:10;2.55;;;2.15;;
38909;SDS011;24676;51.360;12.354;2022-12-07T12:24:00;3.20;;;2.40;;
38909;SDS011;24676;51.360;12.354;2022-12-07T12:26:52;5.00;;;2.05;;
38909;SDS011;24676;51.360;12.354;2022-12-07T12:29:44;2.28;;;1.80;;
38909;SDS011;24676;51.360;12.354;2022-12-07T12:35:31;1.75;;;0.98;;
38909;SDS011;24676;51.360;12.354;2022-12-07T12:38:33;1.45;;;1.30;;
38909;SDS011;24676;51.360;12.354;2022-12-07T12:47:43;1.00;;;0.75;;
38909;SDS011;24676;51.360;12.354;2022-12-07T12:50:37;0.82;;;0.73;;
38909;SDS011;24676;51.360;12.354;2022-12-07T12:53:25;3.85;;;0.63;;
38909;SDS011;24676;51.360;12.354;2022-12-07T12:56:14;1.85;;;0.70;;
38909;SDS011;24676;51.360;12.354;2022-12-07T13:02:15;0.25;;;0.25;;
38909;SDS011;24676;51.360;12.354;2022-12-07T13:08:04;2.13;;;0.65;;
38909;SDS011;24676;51.360;12.354;2022-12-07T13:11:35;0.22;;;0.20;;
38909;SDS011;24676;51.360;12.354;2022-12-07T13:20:39;2.95;;;0.50;;
38909;SDS011;24676;51.360;12.354;2022-12-07T13:26:38;1.05;;;0.55;;
38909;SDS011;24676;51.360;12.354;2022-12-07T13:29:25;2.53;;;0.82;;
38909;SDS011;24676;51.360;12.354;2022-12-07T13:32:17;1.23;;;0.52;;
38909;SDS011;24676;51.360;12.354;2022-12-07T13:35:27;0.75;;;0.40;;
38909;SDS011;24676;51.360;12.354;2022-12-07T13:38:25;0.57;;;0.57;;
38909;SDS011;24676;51.360;12.354;2022-12-07T13:41:15;0.50;;;0.50;;
38909;SDS011;24676;51.360;12.354;2022-12-07T13:44:08;2.10;;;0.40;;
38909;SDS011;24676;51.360;12.354;2022-12-07T13:46:57;0.10;;;0.10;;
38909;SDS011;24676;51.360;12.354;2022-12-07T13:49:47;0.80;;;0.57;;
38909;SDS011;24676;51.360;12.354;2022-12-07T13:52:39;0.40;;;0.20;;
38909;SDS011;24676;51.360;12.354;2022-12-07T13:55:28;0.77;;;0.60;;
38909;SDS011;24676;51.360;12.354;2022-12-07T13:58:13;0.82;;;0.40;;
38909;SDS011;24676;51.360;12.354;2022-12-07T14:00:58;0.70;;;0.70;;
38909;SDS011;24676;51.360;12.354;2022-12-07T14:03:43;0.20;;;0.20;;
38909;SDS011;24676;51.360;12.354;2022-12-07T14:06:27;1.55;;;0.93;;
38909;SDS011;24676;51.360;12.354;2022-12-07T14:09:20;1.67;;;1.08;;
38909;SDS011;24676;51.360;12.354;2022-12-07T14:12:08;0.65;;;0.60;;
38909;SDS011;24676;51.360;12.354;2022-12-07T14:14:52;4.47;;;0.52;;
38909;SDS011;24676;51.360;12.354;2022-12-07T14:17:49;2.65;;;0.60;;
38909;SDS011;24676;51.360;12.354;2022-12-07T14:20:38;0.77;;;0.38;;
38909;SDS011;24676;51.360;12.354;2022-12-07T14:23:24;0.85;;;0.40;;
38909;SDS011;24676;51.360;12.354;2022-12-07T14:26:13;3.28;;;0.70;;
38909;SDS011;24676;51.360;12.354;2022-12-07T14:32:17;1.17;;;0.10;;
38909;SDS011;24676;51.360;12.354;2022-12-07T14:35:11;2.63;;;0.40;;
38909;SDS011;24676;51.360;12.354;2022-12-07T14:37:56;2.17;;;0.50;;
38909;SDS011;24676;51.360;12.354;2022-12-07T14:40:41;1.20;;;0.30;;
38909;SDS011;24676;51.360;12.354;2022-12-07T14:43:25;0.40;;;0.40;;
38909;SDS011;24676;51.360;12.354;2022-12-07T14:46:09;0.45;;;0.40;;
38909;SDS011;24676;51.360;12.354;2022-12-07T14:48:53;2.85;;;0.85;;
38909;SDS011;24676;51.360;12.354;2022-12-07T14:51:38;0.73;;;0.40;;
38909;SDS011;24676;51.360;12.354;2022-12-07T14:54:24;3.30;;;1.00;;
38909;SDS011;24676;51.360;12.354;2022-12-07T14:57:12;0.38;;;0.38;;
38909;SDS011;24676;51.360;12.354;2022-12-07T14:59:56;0.80;;;0.20;;
38909;SDS011;24676;51.360;12.354;2022-12-07T15:02:41;0.30;;;0.30;;
38909;SDS011;24676;51.360;12.354;2022-12-07T15:05:25;1.00;;;0.82;;
38909;SDS011;24676;51.360;12.354;2022-12-07T15:08:10;0.47;;;0.38;;
38909;SDS011;24676;51.360;12.354;2022-12-07T15:10:56;0.80;;;0.55;;
38909;SDS011;24676;51.360;12.354;2022-12-07T15:13:40;1.13;;;0.70;;
38909;SDS011;24676;51.360;12.354;2022-12-07T15:16:43;0.75;;;0.17;;
38909;SDS011;24676;51.360;12.354;2022-12-07T15:19:28;0.50;;;0.30;;
38909;SDS011;24676;51.360;12.354;2022-12-07T15:22:12;1.73;;;0.68;;
38909;SDS011;24676;51.360;12.354;2022-12-07T15:24:56;1.27;;;0.80;;
38909;SDS011;24676;51.360;12.354;2022-12-07T15:27:41;2.72;;;0.60;;
38909;SDS011;24676;51.360;12.354;2022-12-07T15:30:25;2.10;;;1.60;;
38909;SDS011;24676;51.360;12.354;2022-12-07T15:33:10;2.45;;;1.92;;
38909;SDS011;24676;51.360;12.354;2022-12-07T15:35:54;0.68;;;0.63;;
38909;SDS011;24676;51.360;12.354;2022-12-07T15:38:38;1.45;;;0.47;;
38909;SDS011;24676;51.360;12.354;2022-12-07T15:41:22;2.40;;;0.40;;
38909;SDS011;24676;51.360;12.354;2022-12-07T15:44:10;0.65;;;0.63;;
38909;SDS011;24676;51.360;12.354;2022-12-07T15:47:16;0.38;;;0.20;;
38909;SDS011;24676;51.360;12.354;2022-12-07T15:50:00;0.70;;;0.20;;
38909;SDS011;24676;51.360;12.354;2022-12-07T15:52:44;1.10;;;0.20;;
38909;SDS011;24676;51.360;12.354;2022-12-07T15:55:28;5.38;;;0.55;;
38909;SDS011;24676;51.360;12.354;2022-12-07T15:58:13;0.10;;;0.10;;
38909;SDS011;24676;51.360;12.354;2022-12-07T16:00:57;1.45;;;0.63;;
38909;SDS011;24676;51.360;12.354;2022-12-07T16:03:41;0.08;;;0.08;;
38909;SDS011;24676;51.360;12.354;2022-12-07T16:06:26;1.33;;;0.52;;
38909;SDS011;24676;51.360;12.354;2022-12-07T16:09:10;0.63;;;0.50;;
38909;SDS011;24676;51.360;12.354;2022-12-07T16:11:54;5.22;;;1.70;;
38909;SDS011;24676;51.360;12.354;2022-12-07T16:14:39;0.73;;;0.73;;
38909;SDS011;24676;51.360;12.354;2022-12-07T16:17:24;0.50;;;0.40;;
38909;SDS011;24676;51.360;12.354;2022-12-07T16:20:08;0.43;;;0.20;;
38909;SDS011;24676;51.360;12.354;2022-12-07T16:22:53;0.40;;;0.40;;
38909;SDS011;24676;51.360;12.354;2022-12-07T16:25:38;2.22;;;1.23;;
38909;SDS011;24676;51.360;12.354;2022-12-07T16:28:22;0.45;;;0.43;;
38909;SDS011;24676;51.360;12.354;2022-12-07T16:31:13;0.40;;;0.40;;
38909;SDS011;24676;51.360;12.354;2022-12-07T16:33:58;1.42;;;1.33;;
38909;SDS011;24676;51.360;12.354;2022-12-07T16:36:43;2.67;;;1.27;;
38909;SDS011;24676;51.360;12.354;2022-12-07T16:39:28;0.85;;;0.60;;
38909;SDS011;24676;51.360;12.354;2022-12-07T16:42:22;0.95;;;0.60;;
38909;SDS011;24676;51.360;12.354;2022-12-07T16:45:06;0.35;;;0.35;;
38909;SDS011;24676;51.360;12.354;2022-12-07T16:47:51;0.90;;;0.90;;
38909;SDS011;24676;51.360;12.354;2022-12-07T16:50:38;2.58;;;1.10;;
38909;SDS011;24676;51.360;12.354;2022-12-07T16:53:23;9.40;;;4.25;;
38909;SDS011;24676;51.360;12.354;2022-12-07T16:56:12;14.70;;;7.07;;
38909;SDS011;24676;51.360;12.354;2022-12-07T16:58:58;16.38;;;4.65;;
38909;SDS011;24676;51.360;12.354;2022-12-07T17:01:42;13.05;;;5.78;;
38909;SDS011;24676;51.360;12.354;2022-12-07T17:04:27;16.77;;;6.90;;
38909;SDS011;24676;51.360;12.354;2022-12-07T17:07:11;10.23;;;4.72;;
38909;SDS011;24676;51.360;12.354;2022-12-07T17:09:56;8.65;;;4.18;;
38909;SDS011;24676;51.360;12.354;2022-12-07T17:12:40;8.15;;;4.55;;
38909;SDS011;24676;51.360;12.354;2022-12-07T17:15:24;8.30;;;3.40;;
38909;SDS011;24676;51.360;12.354;2022-12-07T17:18:09;8.20;;;3.70;;
38909;SDS011;24676;51.360;12.354;2022-12-07T17:20:53;14.10;;;4.68;;
38909;SDS011;24676;51.360;12.354;2022-12-07T17:23:38;8.65;;;5.25;;
38909;SDS011;24676;51.360;12.354;2022-12-07T17:26:23;6.72;;;2.85;;
38909;SDS011;24676;51.360;12.354;2022-12-07T17:29:10;5.38;;;3.13;;
38909;SDS011;24676;51.360;12.354;2022-12-07T17:31:57;7.53;;;1.70;;
38909;SDS011;24676;51.360;12.354;2022-12-07T17:34:41;3.30;;;1.27;;
38909;SDS011;24676;51.360;12.354;2022-12-07T17:37:26;2.97;;;1.60;;
38909;SDS011;24676;51.360;12.354;2022-12-07T17:40:11;2.33;;;1.38;;
38909;SDS011;24676;51.360;12.354;2022-12-07T17:42:55;2.38;;;1.38;;
38909;SDS011;24676;51.360;12.354;2022-12-07T17:45:39;1.38;;;0.90;;
38909;SDS011;24676;51.360;12.354;2022-12-07T17:48:24;0.70;;;0.55;;
38909;SDS011;24676;51.360;12.354;2022-12-07T17:51:08;3.60;;;0.68;;
38909;SDS011;24676;51.360;12.354;2022-12-07T17:54:11;0.77;;;0.63;;
38909;SDS011;24676;51.360;12.354;2022-12-07T17:56:55;1.85;;;0.85;;
38909;SDS011;24676;51.360;12.354;2022-12-07T17:59:40;1.00;;;0.63;;
38909;SDS011;24676;51.360;12.354;2022-12-07T18:02:24;1.25;;;0.77;;
38909;SDS011;24676;51.360;12.354;2022-12-07T18:05:09;1.42;;;1.33;;
38909;SDS011;24676;51.360;12.354;2022-12-07T18:07:53;2.13;;;1.02;;
38909;SDS011;24676;51.360;12.354;2022-12-07T18:10:38;2.75;;;1.02;;
38909;SDS011;24676;51.360;12.354;2022-12-07T18:13:22;0.80;;;0.57;;
38909;SDS011;24676;51.360;12.354;2022-12-07T18:16:20;5.53;;;1.27;;
38909;SDS011;24676;51.360;12.354;2022-12-07T18:19:06;2.50;;;1.38;;
38909;SDS011;24676;51.360;12.354;2022-12-07T18:21:51;0.90;;;0.90;;
38909;SDS011;24676;51.360;12.354;2022-12-07T18:24:36;0.95;;;0.70;;
38909;SDS011;24676;51.360;12.354;2022-12-07T18:27:23;3.65;;;2.05;;
38909;SDS011;24676;51.360;12.354;2022-12-07T18:30:07;1.45;;;1.30;;
38909;SDS011;24676;51.360;12.354;2022-12-07T18:32:52;1.58;;;1.48;;
38909;SDS011;24676;51.360;12.354;2022-12-07T18:35:36;1.48;;;0.95;;
38909;SDS011;24676;51.360;12.354;2022-12-07T18:38:20;0.73;;;0.73;;
38909;SDS011;24676;51.360;12.354;2022-12-07T18:41:08;0.95;;;0.63;;
38909;SDS011;24676;51.360;12.354;2022-12-07T18:43:55;1.77;;;0.90;;
38909;SDS011;24676;51.360;12.354;2022-12-07T18:46:39;1.63;;;1.27;;
38909;SDS011;24676;51.360;12.354;2022-12-07T18:49:24;0.70;;;0.70;;
38909;SDS011;24676;51.360;12.354;2022-12-07T18:52:09;0.40;;;0.32;;
38909;SDS011;24676;51.360;12.354;2022-12-07T18:54:53;4.95;;;1.02;;
38909;SDS011;24676;51.360;12.354;2022-12-07T18:57:37;1.85;;;0.98;;
38909;SDS011;24676;51.360;12.354;2022-12-07T19:00:22;3.40;;;1.40;;
38909;SDS011;24676;51.360;12.354;2022-12-07T19:03:08;0.52;;;0.52;;
38909;SDS011;24676;51.360;12.354;2022-12-07T19:05:52;1.17;;;0.80;;
38909;SDS011;24676;51.360;12.354;2022-12-07T19:08:40;7.75;;;1.27;;
38909;SDS011;24676;51.360;12.354;2022-12-07T19:11:28;1.13;;;1.02;;
38909;SDS011;24676;51.360;12.354;2022-12-07T19:14:33;0.52;;;0.40;;
38909;SDS011;24676;51.360;12.354;2022-12-07T19:17:20;2.13;;;1.27;;
38909;SDS011;24676;51.360;12.354;2022-12-07T19:20:05;2.10;;;1.42;;
38909;SDS011;24676;51.360;12.354;2022-12-07T19:22:50;2.08;;;1.60;;
38909;SDS011;24676;51.360;12.354;2022-12-07T19:25:35;2.00;;;1.15;;
38909;SDS011;24676;51.360;12.354;2022-12-07T19:28:19;0.82;;;0.50;;
38909;SDS011;24676;51.360;12.354;2022-12-07T19:31:05;3.28;;;2.60;;
38909;SDS011;24676;51.360;12.354;2022-12-07T19:33:54;3.47;;;1.00;;
38909;SDS011;24676;51.360;12.354;2022-12-07T19:36:39;9.27;;;1.58;;
38909;SDS011;24676;51.360;12.354;2022-12-07T19:39:23;1.48;;;1.15;;
38909;SDS011;24676;51.360;12.354;2022-12-07T19:42:08;1.60;;;1.08;;
38909;SDS011;24676;51.360;12.354;2022-12-07T19:44:53;1.10;;;0.95;;
38909;SDS011;24676;51.360;12.354;2022-12-07T19:47:37;2.70;;;0.60;;
38909;SDS011;24676;51.360;12.354;2022-12-07T19:50:21;2.63;;;1.13;;
38909;SDS011;24676;51.360;12.354;2022-12-07T19:53:06;1.17;;;0.90;;
38909;SDS011;24676;51.360;12.354;2022-12-07T19:55:50;2.83;;;1.42;;
38909;SDS011;24676;51.360;12.354;2022-12-07T19:58:34;0.47;;;0.47;;
38909;SDS011;24676;51.360;12.354;2022-12-07T20:01:18;2.15;;;0.77;;
38909;SDS011;24676;51.360;12.354;2022-12-07T20:04:04;3.95;;;1.17;;
38909;SDS011;24676;51.360;12.354;2022-12-07T20:06:51;5.22;;;1.33;;
38909;SDS011;24676;51.360;12.354;2022-12-07T20:09:37;2.97;;;1.90;;
38909;SDS011;24676;51.360;12.354;2022-12-07T20:12:21;1.92;;;1.00;;
38909;SDS011;24676;51.360;12.354;2022-12-07T20:15:24;2.05;;;1.13;;
38909;SDS011;24676;51.360;12.354;2022-12-07T20:18:08;1.70;;;1.23;;
38909;SDS011;24676;51.360;12.354;2022-12-07T20:20:57;1.48;;;1.05;;
38909;SDS011;24676;51.360;12.354;2022-12-07T20:23:42;2.47;;;1.45;;
38909;SDS011;24676;51.360;12.354;2022-12-07T20:26:27;6.05;;;1.33;;
38909;SDS011;24676;51.360;12.354;2022-12-07T20:29:12;1.45;;;0.93;;
38909;SDS011;24676;51.360;12.354;2022-12-07T20:31:58;1.95;;;1.08;;
38909;SDS011;24676;51.360;12.354;2022-12-07T20:34:42;3.10;;;1.38;;
38909;SDS011;24676;51.360;12.354;2022-12-07T20:37:27;3.70;;;1.55;;
38909;SDS011;24676;51.360;12.354;2022-12-07T20:40:11;2.10;;;1.35;;
38909;SDS011;24676;51.360;12.354;2022-12-07T20:42:56;2.47;;;1.45;;
38909;SDS011;24676;51.360;12.354;2022-12-07T20:45:46;2.83;;;1.60;;
38909;SDS011;24676;51.360;12.354;2022-12-07T20:48:31;2.03;;;1.80;;
38909;SDS011;24676;51.360;12.354;2022-12-07T20:51:16;8.93;;;1.80;;
38909;SDS011;24676;51.360;12.354;2022-12-07T20:54:01;1.02;;;0.93;;
38909;SDS011;24676;51.360;12.354;2022-12-07T20:56:45;1.02;;;1.02;;
38909;SDS011;24676;51.360;12.354;2022-12-07T20:59:30;2.75;;;1.10;;
38909;SDS011;24676;51.360;12.354;2022-12-07T21:02:14;1.88;;;1.65;;
38909;SDS011;24676;51.360;12.354;2022-12-07T21:04:58;3.10;;;1.77;;
38909;SDS011;24676;51.360;12.354;2022-12-07T21:07:43;1.35;;;1.08;;
38909;SDS011;24676;51.360;12.354;2022-12-07T21:10:28;2.53;;;1.42;;
38909;SDS011;24676;51.360;12.354;2022-12-07T21:13:12;4.28;;;1.35;;
38909;SDS011;24676;51.360;12.354;2022-12-07T21:15:56;2.28;;;1.10;;
38909;SDS011;24676;51.360;12.354;2022-12-07T21:18:42;2.40;;;1.67;;